sensor_id;sensor_type;location;lat;lon;timestamp;P1;durP1;ratioP1;P2;durP2;ratioP2
52866;SDS011;38739;53.324;6.862;2023-09-19T00:00:37;11.52;;;2.35;;
52866;SDS011;38739;53.324;6.862;2023-09-19T00:03:05;9.45;;;2.05;;
52866;SDS011;38739;53.324;6.862;2023-09-19T00:05:33;9.27;;;2.08;;
52866;SDS011;38739;53.324;6.862;2023-09-19T00:08:00;11.27;;;2.30;;
52866;SDS011;38739;53.324;6.862;2023-09-19T00:10:29;9.00;;;2.13;;
52866;SDS011;38739;53.324;6.862;2023-09-19T00:12:56;10.75;;;1.98;;
52866;SDS011;38739;53.324;6.862;2023-09-19T00:15:24;10.25;;;2.00;;
52866;SDS011;38739;53.324;6.862;2023-09-19T00:17:53;9.68;;;2.10;;
52866;SDS011;38739;53.324;6.862;2023-09-19T00:20:20;10.45;;;2.28;;
52866;SDS011;38739;53.324;6.862;2023-09-19T00:22:49;8.93;;;2.38;;
52866;SDS011;38739;53.324;6.862;2023-09-19T00:25:17;13.88;;;2.47;;
52866;SDS011;38739;53.324;6.862;2023-09-19T00:27:42;8.82;;;2.33;;
52866;SDS011;38739;53.324;6.862;2023-09-19T00:30:10;10.75;;;2.00;;
52866;SDS011;38739;53.324;6.862;2023-09-19T00:32:43;10.23;;;1.90;;
52866;SDS011;38739;53.324;6.862;2023-09-19T00:35:12;8.85;;;2.20;;
52866;SDS011;38739;53.324;6.862;2023-09-19T00:37:40;10.90;;;2.20;;
52866;SDS011;38739;53.324;6.862;2023-09-19T00:40:10;9.00;;;2.30;;
52866;SDS011;38739;53.324;6.862;2023-09-19T00:42:44;8.40;;;2.15;;
52866;SDS011;38739;53.324;6.862;2023-09-19T00:45:11;9.10;;;1.95;;
52866;SDS011;38739;53.324;6.862;2023-09-19T00:47:39;14.45;;;2.90;;
52866;SDS011;38739;53.324;6.862;2023-09-19T00:50:14;12.90;;;2.10;;
52866;SDS011;38739;53.324;6.862;2023-09-19T00:52:42;9.95;;;2.10;;
52866;SDS011;38739;53.324;6.862;2023-09-19T00:55:09;6.10;;;2.25;;
52866;SDS011;38739;53.324;6.862;2023-09-19T00:57:36;12.50;;;2.58;;
52866;SDS011;38739;53.324;6.862;2023-09-19T01:00:03;11.02;;;2.30;;
52866;SDS011;38739;53.324;6.862;2023-09-19T01:02:32;11.45;;;2.13;;
52866;SDS011;38739;53.324;6.862;2023-09-19T01:04:59;10.32;;;2.10;;
52866;SDS011;38739;53.324;6.862;2023-09-19T01:07:25;12.00;;;2.33;;
52866;SDS011;38739;53.324;6.862;2023-09-19T01:09:55;8.65;;;2.15;;
52866;SDS011;38739;53.324;6.862;2023-09-19T01:12:29;13.90;;;2.17;;
52866;SDS011;38739;53.324;6.862;2023-09-19T01:29:44;10.18;;;2.03;;
52866;SDS011;38739;53.324;6.862;2023-09-19T01:32:13;11.77;;;2.22;;
52866;SDS011;38739;53.324;6.862;2023-09-19T01:34:50;10.40;;;1.90;;
52866;SDS011;38739;53.324;6.862;2023-09-19T01:37:23;11.82;;;2.35;;
52866;SDS011;38739;53.324;6.862;2023-09-19T01:39:53;13.68;;;2.10;;
52866;SDS011;38739;53.324;6.862;2023-09-19T01:47:41;12.60;;;2.13;;
52866;SDS011;38739;53.324;6.862;2023-09-19T01:55:43;11.27;;;2.10;;
52866;SDS011;38739;53.324;6.862;2023-09-19T02:01:00;8.45;;;2.05;;
52866;SDS011;38739;53.324;6.862;2023-09-19T02:03:28;12.00;;;2.65;;
52866;SDS011;38739;53.324;6.862;2023-09-19T02:05:56;13.05;;;2.28;;
52866;SDS011;38739;53.324;6.862;2023-09-19T02:08:22;11.07;;;2.30;;
52866;SDS011;38739;53.324;6.862;2023-09-19T02:10:51;9.35;;;2.00;;
52866;SDS011;38739;53.324;6.862;2023-09-19T02:13:21;12.20;;;2.25;;
52866;SDS011;38739;53.324;6.862;2023-09-19T02:15:52;9.20;;;1.85;;
52866;SDS011;38739;53.324;6.862;2023-09-19T02:18:17;12.45;;;2.15;;
52866;SDS011;38739;53.324;6.862;2023-09-19T02:20:43;11.43;;;2.47;;
52866;SDS011;38739;53.324;6.862;2023-09-19T02:23:09;8.38;;;2.08;;
52866;SDS011;38739;53.324;6.862;2023-09-19T02:25:35;10.07;;;2.05;;
52866;SDS011;38739;53.324;6.862;2023-09-19T02:28:03;8.50;;;1.90;;
52866;SDS011;38739;53.324;6.862;2023-09-19T02:30:29;15.85;;;2.35;;
52866;SDS011;38739;53.324;6.862;2023-09-19T02:32:55;11.98;;;1.98;;
52866;SDS011;38739;53.324;6.862;2023-09-19T02:35:21;10.35;;;2.58;;
52866;SDS011;38739;53.324;6.862;2023-09-19T02:37:47;10.48;;;2.38;;
52866;SDS011;38739;53.324;6.862;2023-09-19T02:40:13;8.75;;;2.40;;
52866;SDS011;38739;53.324;6.862;2023-09-19T02:42:52;9.50;;;2.17;;
52866;SDS011;38739;53.324;6.862;2023-09-19T02:45:19;11.02;;;2.85;;
52866;SDS011;38739;53.324;6.862;2023-09-19T02:47:45;8.40;;;2.10;;
52866;SDS011;38739;53.324;6.862;2023-09-19T02:50:12;12.57;;;2.30;;
52866;SDS011;38739;53.324;6.862;2023-09-19T02:52:41;9.07;;;2.00;;
52866;SDS011;38739;53.324;6.862;2023-09-19T02:55:12;10.90;;;2.10;;
52866;SDS011;38739;53.324;6.862;2023-09-19T02:57:39;10.07;;;2.30;;
52866;SDS011;38739;53.324;6.862;2023-09-19T03:00:08;12.77;;;2.53;;
52866;SDS011;38739;53.324;6.862;2023-09-19T03:02:37;13.05;;;2.22;;
52866;SDS011;38739;53.324;6.862;2023-09-19T03:05:05;9.07;;;2.10;;
52866;SDS011;38739;53.324;6.862;2023-09-19T03:07:32;12.32;;;2.65;;
52866;SDS011;38739;53.324;6.862;2023-09-19T03:09:58;10.55;;;2.60;;
52866;SDS011;38739;53.324;6.862;2023-09-19T03:12:25;6.93;;;2.00;;
52866;SDS011;38739;53.324;6.862;2023-09-19T03:14:51;9.23;;;2.20;;
52866;SDS011;38739;53.324;6.862;2023-09-19T03:17:18;9.23;;;2.08;;
52866;SDS011;38739;53.324;6.862;2023-09-19T03:19:45;6.63;;;2.00;;
52866;SDS011;38739;53.324;6.862;2023-09-19T03:22:12;9.75;;;2.13;;
52866;SDS011;38739;53.324;6.862;2023-09-19T03:24:39;11.25;;;2.20;;
52866;SDS011;38739;53.324;6.862;2023-09-19T03:27:05;10.27;;;2.35;;
52866;SDS011;38739;53.324;6.862;2023-09-19T03:29:31;10.70;;;2.03;;
52866;SDS011;38739;53.324;6.862;2023-09-19T03:31:56;9.30;;;2.30;;
52866;SDS011;38739;53.324;6.862;2023-09-19T03:34:22;7.53;;;1.92;;
52866;SDS011;38739;53.324;6.862;2023-09-19T03:36:48;10.55;;;2.50;;
52866;SDS011;38739;53.324;6.862;2023-09-19T03:39:13;10.70;;;2.00;;
52866;SDS011;38739;53.324;6.862;2023-09-19T03:41:41;12.20;;;2.58;;
52866;SDS011;38739;53.324;6.862;2023-09-19T03:44:06;7.95;;;1.98;;
52866;SDS011;38739;53.324;6.862;2023-09-19T03:46:32;11.70;;;1.92;;
52866;SDS011;38739;53.324;6.862;2023-09-19T03:49:00;11.90;;;2.40;;
52866;SDS011;38739;53.324;6.862;2023-09-19T03:51:26;10.85;;;2.45;;
52866;SDS011;38739;53.324;6.862;2023-09-19T03:53:52;7.55;;;1.90;;
52866;SDS011;38739;53.324;6.862;2023-09-19T03:56:17;10.25;;;2.17;;
52866;SDS011;38739;53.324;6.862;2023-09-19T03:58:43;13.27;;;2.60;;
52866;SDS011;38739;53.324;6.862;2023-09-19T04:01:09;8.35;;;2.10;;
52866;SDS011;38739;53.324;6.862;2023-09-19T04:03:35;9.90;;;2.30;;
52866;SDS011;38739;53.324;6.862;2023-09-19T04:06:12;14.32;;;2.30;;
52866;SDS011;38739;53.324;6.862;2023-09-19T04:08:38;10.35;;;2.20;;
52866;SDS011;38739;53.324;6.862;2023-09-19T04:11:04;11.45;;;2.28;;
52866;SDS011;38739;53.324;6.862;2023-09-19T04:13:30;7.32;;;1.92;;
52866;SDS011;38739;53.324;6.862;2023-09-19T04:15:55;12.32;;;2.17;;
52866;SDS011;38739;53.324;6.862;2023-09-19T04:18:21;8.70;;;2.40;;
52866;SDS011;38739;53.324;6.862;2023-09-19T04:20:52;12.10;;;2.75;;
52866;SDS011;38739;53.324;6.862;2023-09-19T04:23:18;11.98;;;2.33;;
52866;SDS011;38739;53.324;6.862;2023-09-19T04:25:46;6.80;;;2.30;;
52866;SDS011;38739;53.324;6.862;2023-09-19T04:28:11;13.27;;;2.28;;
52866;SDS011;38739;53.324;6.862;2023-09-19T04:30:38;11.93;;;2.38;;
52866;SDS011;38739;53.324;6.862;2023-09-19T04:33:06;13.02;;;2.65;;
52866;SDS011;38739;53.324;6.862;2023-09-19T04:35:32;10.85;;;2.72;;
52866;SDS011;38739;53.324;6.862;2023-09-19T04:37:59;10.30;;;2.35;;
52866;SDS011;38739;53.324;6.862;2023-09-19T04:40:25;14.02;;;2.38;;
52866;SDS011;38739;53.324;6.862;2023-09-19T04:42:55;8.45;;;2.10;;
52866;SDS011;38739;53.324;6.862;2023-09-19T04:45:22;13.48;;;2.80;;
52866;SDS011;38739;53.324;6.862;2023-09-19T04:47:48;9.93;;;2.20;;
52866;SDS011;38739;53.324;6.862;2023-09-19T04:50:14;9.65;;;2.10;;
52866;SDS011;38739;53.324;6.862;2023-09-19T04:52:43;6.47;;;2.00;;
52866;SDS011;38739;53.324;6.862;2023-09-19T04:55:10;12.30;;;2.20;;
52866;SDS011;38739;53.324;6.862;2023-09-19T05:02:42;8.07;;;2.20;;
52866;SDS011;38739;53.324;6.862;2023-09-19T05:05:08;7.15;;;1.60;;
52866;SDS011;38739;53.324;6.862;2023-09-19T05:07:40;10.15;;;2.22;;
52866;SDS011;38739;53.324;6.862;2023-09-19T05:10:06;9.00;;;2.17;;
52866;SDS011;38739;53.324;6.862;2023-09-19T05:12:35;9.88;;;2.40;;
52866;SDS011;38739;53.324;6.862;2023-09-19T05:15:02;8.93;;;2.20;;
52866;SDS011;38739;53.324;6.862;2023-09-19T05:17:29;9.30;;;2.53;;
52866;SDS011;38739;53.324;6.862;2023-09-19T05:19:55;7.97;;;2.20;;
52866;SDS011;38739;53.324;6.862;2023-09-19T05:22:20;12.00;;;2.38;;
52866;SDS011;38739;53.324;6.862;2023-09-19T05:24:46;9.55;;;2.40;;
52866;SDS011;38739;53.324;6.862;2023-09-19T05:27:13;9.05;;;2.22;;
52866;SDS011;38739;53.324;6.862;2023-09-19T05:29:42;9.55;;;2.22;;
52866;SDS011;38739;53.324;6.862;2023-09-19T05:32:09;12.38;;;2.42;;
52866;SDS011;38739;53.324;6.862;2023-09-19T05:34:36;12.18;;;2.30;;
52866;SDS011;38739;53.324;6.862;2023-09-19T05:37:03;11.98;;;2.42;;
52866;SDS011;38739;53.324;6.862;2023-09-19T05:39:32;10.07;;;2.25;;
52866;SDS011;38739;53.324;6.862;2023-09-19T05:41:58;11.52;;;2.58;;
52866;SDS011;38739;53.324;6.862;2023-09-19T05:44:25;11.02;;;2.50;;
52866;SDS011;38739;53.324;6.862;2023-09-19T05:46:51;8.38;;;2.15;;
52866;SDS011;38739;53.324;6.862;2023-09-19T05:49:17;11.13;;;2.40;;
52866;SDS011;38739;53.324;6.862;2023-09-19T05:51:43;13.10;;;2.33;;
52866;SDS011;38739;53.324;6.862;2023-09-19T05:54:09;7.72;;;2.47;;
52866;SDS011;38739;53.324;6.862;2023-09-19T05:56:36;13.90;;;2.75;;
52866;SDS011;38739;53.324;6.862;2023-09-19T05:59:02;11.90;;;2.45;;
52866;SDS011;38739;53.324;6.862;2023-09-19T06:01:29;13.88;;;2.45;;
52866;SDS011;38739;53.324;6.862;2023-09-19T06:03:56;8.60;;;2.40;;
52866;SDS011;38739;53.324;6.862;2023-09-19T06:06:22;8.35;;;2.10;;
52866;SDS011;38739;53.324;6.862;2023-09-19T06:08:49;11.25;;;2.20;;
52866;SDS011;38739;53.324;6.862;2023-09-19T06:11:16;11.43;;;2.10;;
52866;SDS011;38739;53.324;6.862;2023-09-19T06:13:41;8.00;;;2.28;;
52866;SDS011;38739;53.324;6.862;2023-09-19T06:16:07;12.23;;;2.30;;
52866;SDS011;38739;53.324;6.862;2023-09-19T06:18:34;10.23;;;2.30;;
52866;SDS011;38739;53.324;6.862;2023-09-19T06:21:01;8.57;;;2.03;;
52866;SDS011;38739;53.324;6.862;2023-09-19T06:23:32;12.43;;;2.80;;
52866;SDS011;38739;53.324;6.862;2023-09-19T06:25:59;10.38;;;2.15;;
52866;SDS011;38739;53.324;6.862;2023-09-19T06:28:25;10.38;;;2.55;;
52866;SDS011;38739;53.324;6.862;2023-09-19T06:30:53;11.70;;;2.10;;
52866;SDS011;38739;53.324;6.862;2023-09-19T06:33:22;13.88;;;2.45;;
52866;SDS011;38739;53.324;6.862;2023-09-19T06:35:48;13.18;;;2.53;;
52866;SDS011;38739;53.324;6.862;2023-09-19T06:38:13;10.75;;;2.35;;
52866;SDS011;38739;53.324;6.862;2023-09-19T06:40:40;14.80;;;2.40;;
52866;SDS011;38739;53.324;6.862;2023-09-19T06:43:09;12.15;;;2.55;;
52866;SDS011;38739;53.324;6.862;2023-09-19T06:45:35;18.67;;;3.13;;
52866;SDS011;38739;53.324;6.862;2023-09-19T06:48:01;16.80;;;2.75;;
52866;SDS011;38739;53.324;6.862;2023-09-19T06:50:28;9.55;;;2.40;;
52866;SDS011;38739;53.324;6.862;2023-09-19T06:52:56;10.48;;;2.33;;
52866;SDS011;38739;53.324;6.862;2023-09-19T06:55:24;13.35;;;2.67;;
52866;SDS011;38739;53.324;6.862;2023-09-19T06:57:52;10.18;;;2.58;;
52866;SDS011;38739;53.324;6.862;2023-09-19T07:00:21;10.77;;;2.20;;
52866;SDS011;38739;53.324;6.862;2023-09-19T07:03:01;13.48;;;2.35;;
52866;SDS011;38739;53.324;6.862;2023-09-19T07:05:30;10.95;;;2.38;;
52866;SDS011;38739;53.324;6.862;2023-09-19T07:07:57;11.30;;;2.30;;
52866;SDS011;38739;53.324;6.862;2023-09-19T07:10:24;11.43;;;2.72;;
52866;SDS011;38739;53.324;6.862;2023-09-19T07:13:03;13.70;;;2.38;;
52866;SDS011;38739;53.324;6.862;2023-09-19T07:15:32;8.98;;;2.58;;
52866;SDS011;38739;53.324;6.862;2023-09-19T07:18:04;11.52;;;2.40;;
52866;SDS011;38739;53.324;6.862;2023-09-19T07:20:31;14.48;;;2.72;;
52866;SDS011;38739;53.324;6.862;2023-09-19T07:23:00;12.75;;;2.83;;
52866;SDS011;38739;53.324;6.862;2023-09-19T07:25:26;15.07;;;2.65;;
52866;SDS011;38739;53.324;6.862;2023-09-19T07:27:54;11.55;;;2.33;;
52866;SDS011;38739;53.324;6.862;2023-09-19T07:30:21;11.40;;;2.70;;
52866;SDS011;38739;53.324;6.862;2023-09-19T07:32:47;10.20;;;2.25;;
52866;SDS011;38739;53.324;6.862;2023-09-19T07:35:13;14.60;;;2.72;;
52866;SDS011;38739;53.324;6.862;2023-09-19T07:37:40;11.82;;;2.70;;
52866;SDS011;38739;53.324;6.862;2023-09-19T07:40:06;14.82;;;2.30;;
52866;SDS011;38739;53.324;6.862;2023-09-19T07:42:35;10.73;;;2.70;;
52866;SDS011;38739;53.324;6.862;2023-09-19T07:45:06;12.68;;;2.63;;
52866;SDS011;38739;53.324;6.862;2023-09-19T07:47:33;13.57;;;2.70;;
52866;SDS011;38739;53.324;6.862;2023-09-19T07:49:59;12.25;;;2.90;;
52866;SDS011;38739;53.324;6.862;2023-09-19T07:52:27;17.08;;;2.70;;
52866;SDS011;38739;53.324;6.862;2023-09-19T07:54:54;11.02;;;2.65;;
52866;SDS011;38739;53.324;6.862;2023-09-19T07:57:22;11.95;;;2.83;;
52866;SDS011;38739;53.324;6.862;2023-09-19T07:59:48;14.60;;;2.45;;
52866;SDS011;38739;53.324;6.862;2023-09-19T08:02:13;13.52;;;2.92;;
52866;SDS011;38739;53.324;6.862;2023-09-19T08:04:43;12.98;;;2.60;;
52866;SDS011;38739;53.324;6.862;2023-09-19T08:07:11;15.90;;;2.75;;
52866;SDS011;38739;53.324;6.862;2023-09-19T08:09:38;12.23;;;2.65;;
52866;SDS011;38739;53.324;6.862;2023-09-19T08:12:04;11.18;;;2.63;;
52866;SDS011;38739;53.324;6.862;2023-09-19T08:14:35;11.90;;;2.90;;
52866;SDS011;38739;53.324;6.862;2023-09-19T08:17:02;17.58;;;3.35;;
52866;SDS011;38739;53.324;6.862;2023-09-19T08:19:27;12.63;;;2.50;;
52866;SDS011;38739;53.324;6.862;2023-09-19T08:21:57;13.40;;;3.20;;
52866;SDS011;38739;53.324;6.862;2023-09-19T08:24:24;12.35;;;2.70;;
52866;SDS011;38739;53.324;6.862;2023-09-19T08:26:57;12.68;;;2.70;;
52866;SDS011;38739;53.324;6.862;2023-09-19T08:29:23;14.63;;;2.65;;
52866;SDS011;38739;53.324;6.862;2023-09-19T08:31:58;8.60;;;2.50;;
52866;SDS011;38739;53.324;6.862;2023-09-19T08:34:24;12.77;;;3.30;;
52866;SDS011;38739;53.324;6.862;2023-09-19T08:36:51;11.88;;;2.58;;
52866;SDS011;38739;53.324;6.862;2023-09-19T08:39:22;14.25;;;3.25;;
52866;SDS011;38739;53.324;6.862;2023-09-19T08:41:48;11.65;;;2.70;;
52866;SDS011;38739;53.324;6.862;2023-09-19T08:44:14;13.77;;;2.75;;
52866;SDS011;38739;53.324;6.862;2023-09-19T08:46:41;7.72;;;2.40;;
52866;SDS011;38739;53.324;6.862;2023-09-19T08:49:12;13.85;;;2.67;;
52866;SDS011;38739;53.324;6.862;2023-09-19T08:52:07;10.70;;;2.65;;
52866;SDS011;38739;53.324;6.862;2023-09-19T08:54:45;13.73;;;2.60;;
52866;SDS011;38739;53.324;6.862;2023-09-19T08:57:14;8.77;;;2.35;;
52866;SDS011;38739;53.324;6.862;2023-09-19T08:59:47;10.90;;;2.42;;
52866;SDS011;38739;53.324;6.862;2023-09-19T09:02:16;18.30;;;3.22;;
52866;SDS011;38739;53.324;6.862;2023-09-19T09:04:44;8.70;;;2.40;;
52866;SDS011;38739;53.324;6.862;2023-09-19T09:07:12;10.35;;;2.83;;
52866;SDS011;38739;53.324;6.862;2023-09-19T09:09:38;11.20;;;2.50;;
52866;SDS011;38739;53.324;6.862;2023-09-19T09:12:12;12.65;;;2.70;;
52866;SDS011;38739;53.324;6.862;2023-09-19T09:14:39;12.55;;;2.40;;
52866;SDS011;38739;53.324;6.862;2023-09-19T09:17:06;12.32;;;3.00;;
52866;SDS011;38739;53.324;6.862;2023-09-19T09:19:32;13.75;;;2.88;;
52866;SDS011;38739;53.324;6.862;2023-09-19T09:22:11;15.10;;;3.22;;
52866;SDS011;38739;53.324;6.862;2023-09-19T09:24:37;10.27;;;3.15;;
52866;SDS011;38739;53.324;6.862;2023-09-19T09:27:15;10.90;;;2.83;;
52866;SDS011;38739;53.324;6.862;2023-09-19T09:29:45;11.77;;;2.95;;
52866;SDS011;38739;53.324;6.862;2023-09-19T09:34:59;14.00;;;2.85;;
52866;SDS011;38739;53.324;6.862;2023-09-19T09:37:25;13.75;;;2.78;;
52866;SDS011;38739;53.324;6.862;2023-09-19T09:39:57;8.45;;;2.78;;
52866;SDS011;38739;53.324;6.862;2023-09-19T09:42:44;10.50;;;2.90;;
52866;SDS011;38739;53.324;6.862;2023-09-19T09:45:21;10.68;;;2.88;;
52866;SDS011;38739;53.324;6.862;2023-09-19T09:48:08;17.50;;;3.72;;
52866;SDS011;38739;53.324;6.862;2023-09-19T09:50:46;11.93;;;3.80;;
52866;SDS011;38739;53.324;6.862;2023-09-19T09:53:20;13.85;;;3.42;;
52866;SDS011;38739;53.324;6.862;2023-09-19T09:56:05;15.68;;;3.53;;
52866;SDS011;38739;53.324;6.862;2023-09-19T09:58:36;14.07;;;3.45;;
52866;SDS011;38739;53.324;6.862;2023-09-19T10:01:05;13.77;;;3.38;;
52866;SDS011;38739;53.324;6.862;2023-09-19T10:03:38;11.38;;;3.30;;
52866;SDS011;38739;53.324;6.862;2023-09-19T10:06:12;14.15;;;3.50;;
52866;SDS011;38739;53.324;6.862;2023-09-19T10:09:00;16.00;;;3.35;;
52866;SDS011;38739;53.324;6.862;2023-09-19T10:11:43;13.98;;;3.30;;
52866;SDS011;38739;53.324;6.862;2023-09-19T10:14:10;14.40;;;3.50;;
52866;SDS011;38739;53.324;6.862;2023-09-19T10:16:42;14.07;;;3.22;;
52866;SDS011;38739;53.324;6.862;2023-09-19T10:19:14;13.23;;;2.72;;
52866;SDS011;38739;53.324;6.862;2023-09-19T10:21:50;17.92;;;3.50;;
52866;SDS011;38739;53.324;6.862;2023-09-19T10:24:18;13.35;;;3.10;;
52866;SDS011;38739;53.324;6.862;2023-09-19T10:26:46;16.23;;;3.50;;
52866;SDS011;38739;53.324;6.862;2023-09-19T10:29:15;10.38;;;3.20;;
52866;SDS011;38739;53.324;6.862;2023-09-19T10:31:44;11.65;;;3.10;;
52866;SDS011;38739;53.324;6.862;2023-09-19T10:34:16;14.10;;;2.88;;
52866;SDS011;38739;53.324;6.862;2023-09-19T10:36:46;12.27;;;2.90;;
52866;SDS011;38739;53.324;6.862;2023-09-19T10:39:13;11.80;;;2.92;;
52866;SDS011;38739;53.324;6.862;2023-09-19T10:41:44;11.82;;;2.92;;
52866;SDS011;38739;53.324;6.862;2023-09-19T10:44:25;12.48;;;2.97;;
52866;SDS011;38739;53.324;6.862;2023-09-19T10:46:54;11.75;;;2.55;;
52866;SDS011;38739;53.324;6.862;2023-09-19T10:49:21;12.18;;;2.50;;
52866;SDS011;38739;53.324;6.862;2023-09-19T10:51:47;15.48;;;3.35;;
52866;SDS011;38739;53.324;6.862;2023-09-19T10:54:19;13.35;;;3.20;;
52866;SDS011;38739;53.324;6.862;2023-09-19T10:59:18;11.73;;;3.00;;
52866;SDS011;38739;53.324;6.862;2023-09-19T11:07:05;10.63;;;2.70;;
52866;SDS011;38739;53.324;6.862;2023-09-19T11:09:50;11.20;;;2.75;;
52866;SDS011;38739;53.324;6.862;2023-09-19T11:14:54;13.38;;;3.38;;
52866;SDS011;38739;53.324;6.862;2023-09-19T11:30:43;11.82;;;2.80;;
52866;SDS011;38739;53.324;6.862;2023-09-19T11:36:06;14.68;;;3.33;;
52866;SDS011;38739;53.324;6.862;2023-09-19T11:46:35;10.38;;;2.50;;
52866;SDS011;38739;53.324;6.862;2023-09-19T11:49:25;10.70;;;2.63;;
52866;SDS011;38739;53.324;6.862;2023-09-19T11:51:55;12.57;;;2.70;;
52866;SDS011;38739;53.324;6.862;2023-09-19T11:54:22;12.30;;;2.85;;
52866;SDS011;38739;53.324;6.862;2023-09-19T11:56:53;11.45;;;2.85;;
52866;SDS011;38739;53.324;6.862;2023-09-19T11:59:22;13.05;;;3.20;;
52866;SDS011;38739;53.324;6.862;2023-09-19T12:01:53;12.07;;;2.97;;
52866;SDS011;38739;53.324;6.862;2023-09-19T12:04:33;12.38;;;2.92;;
52866;SDS011;38739;53.324;6.862;2023-09-19T12:07:00;11.18;;;2.88;;
52866;SDS011;38739;53.324;6.862;2023-09-19T12:09:26;11.23;;;2.78;;
52866;SDS011;38739;53.324;6.862;2023-09-19T12:11:52;15.25;;;2.67;;
52866;SDS011;38739;53.324;6.862;2023-09-19T12:14:24;11.38;;;2.70;;
52866;SDS011;38739;53.324;6.862;2023-09-19T12:16:57;7.82;;;2.30;;
52866;SDS011;38739;53.324;6.862;2023-09-19T12:19:25;11.93;;;2.67;;
52866;SDS011;38739;53.324;6.862;2023-09-19T12:21:55;14.20;;;2.95;;
52866;SDS011;38739;53.324;6.862;2023-09-19T12:24:29;13.82;;;2.95;;
52866;SDS011;38739;53.324;6.862;2023-09-19T12:26:59;11.50;;;2.97;;
52866;SDS011;38739;53.324;6.862;2023-09-19T12:29:26;17.35;;;2.58;;
52866;SDS011;38739;53.324;6.862;2023-09-19T12:31:53;12.93;;;2.70;;
52866;SDS011;38739;53.324;6.862;2023-09-19T12:34:31;12.13;;;2.70;;
52866;SDS011;38739;53.324;6.862;2023-09-19T12:39:48;9.43;;;2.42;;
52866;SDS011;38739;53.324;6.862;2023-09-19T12:42:26;14.15;;;2.65;;
52866;SDS011;38739;53.324;6.862;2023-09-19T12:44:58;8.40;;;2.50;;
52866;SDS011;38739;53.324;6.862;2023-09-19T12:47:25;7.72;;;2.47;;
52866;SDS011;38739;53.324;6.862;2023-09-19T12:52:44;12.50;;;3.05;;
52866;SDS011;38739;53.324;6.862;2023-09-19T12:55:23;13.13;;;2.75;;
52866;SDS011;38739;53.324;6.862;2023-09-19T12:58:11;12.43;;;2.28;;
52866;SDS011;38739;53.324;6.862;2023-09-19T13:00:38;11.70;;;2.45;;
52866;SDS011;38739;53.324;6.862;2023-09-19T13:03:13;12.45;;;2.60;;
52866;SDS011;38739;53.324;6.862;2023-09-19T13:08:28;10.63;;;2.58;;
52866;SDS011;38739;53.324;6.862;2023-09-19T13:13:48;12.38;;;2.25;;
52866;SDS011;38739;53.324;6.862;2023-09-19T13:16:19;10.65;;;2.58;;
52866;SDS011;38739;53.324;6.862;2023-09-19T13:18:51;13.68;;;2.47;;
52866;SDS011;38739;53.324;6.862;2023-09-19T13:24:24;10.60;;;2.10;;
52866;SDS011;38739;53.324;6.862;2023-09-19T13:26:54;12.65;;;2.30;;
52866;SDS011;38739;53.324;6.862;2023-09-19T13:29:19;11.35;;;2.13;;
52866;SDS011;38739;53.324;6.862;2023-09-19T13:31:46;9.02;;;2.28;;
52866;SDS011;38739;53.324;6.862;2023-09-19T13:34:12;6.88;;;2.00;;
52866;SDS011;38739;53.324;6.862;2023-09-19T13:36:40;10.48;;;1.92;;
52866;SDS011;38739;53.324;6.862;2023-09-19T13:39:07;11.88;;;2.35;;
52866;SDS011;38739;53.324;6.862;2023-09-19T13:41:34;9.13;;;1.77;;
52866;SDS011;38739;53.324;6.862;2023-09-19T13:44:04;10.63;;;2.40;;
52866;SDS011;38739;53.324;6.862;2023-09-19T13:46:30;8.93;;;2.15;;
52866;SDS011;38739;53.324;6.862;2023-09-19T13:48:58;8.27;;;1.98;;
52866;SDS011;38739;53.324;6.862;2023-09-19T13:51:27;12.15;;;2.47;;
52866;SDS011;38739;53.324;6.862;2023-09-19T13:53:55;8.15;;;2.30;;
52866;SDS011;38739;53.324;6.862;2023-09-19T13:56:20;12.90;;;2.80;;
52866;SDS011;38739;53.324;6.862;2023-09-19T13:58:47;10.60;;;1.77;;
52866;SDS011;38739;53.324;6.862;2023-09-19T14:01:12;10.85;;;2.10;;
52866;SDS011;38739;53.324;6.862;2023-09-19T14:03:41;12.57;;;2.00;;
52866;SDS011;38739;53.324;6.862;2023-09-19T14:06:12;8.75;;;2.10;;
52866;SDS011;38739;53.324;6.862;2023-09-19T14:08:38;8.57;;;2.10;;
52866;SDS011;38739;53.324;6.862;2023-09-19T14:11:07;8.98;;;1.92;;
52866;SDS011;38739;53.324;6.862;2023-09-19T14:13:33;8.23;;;1.90;;
52866;SDS011;38739;53.324;6.862;2023-09-19T14:16:03;10.02;;;1.98;;
52866;SDS011;38739;53.324;6.862;2023-09-19T14:18:30;8.00;;;1.95;;
52866;SDS011;38739;53.324;6.862;2023-09-19T14:20:56;10.40;;;2.05;;
52866;SDS011;38739;53.324;6.862;2023-09-19T14:23:22;11.77;;;2.20;;
52866;SDS011;38739;53.324;6.862;2023-09-19T14:25:48;10.20;;;1.95;;
52866;SDS011;38739;53.324;6.862;2023-09-19T14:28:15;7.68;;;1.85;;
52866;SDS011;38739;53.324;6.862;2023-09-19T14:30:41;9.38;;;1.77;;
52866;SDS011;38739;53.324;6.862;2023-09-19T14:33:07;5.75;;;1.67;;
52866;SDS011;38739;53.324;6.862;2023-09-19T14:35:32;7.10;;;1.83;;
52866;SDS011;38739;53.324;6.862;2023-09-19T14:37:58;6.60;;;1.48;;
52866;SDS011;38739;53.324;6.862;2023-09-19T14:40:24;6.60;;;1.60;;
52866;SDS011;38739;53.324;6.862;2023-09-19T14:42:50;8.73;;;1.85;;
52866;SDS011;38739;53.324;6.862;2023-09-19T14:45:16;9.02;;;1.60;;
52866;SDS011;38739;53.324;6.862;2023-09-19T14:47:43;8.75;;;1.58;;
52866;SDS011;38739;53.324;6.862;2023-09-19T14:50:10;8.77;;;1.83;;
52866;SDS011;38739;53.324;6.862;2023-09-19T14:52:37;8.88;;;2.08;;
52866;SDS011;38739;53.324;6.862;2023-09-19T14:55:04;9.70;;;1.92;;
52866;SDS011;38739;53.324;6.862;2023-09-19T14:57:31;10.32;;;2.17;;
52866;SDS011;38739;53.324;6.862;2023-09-19T14:59:58;6.60;;;1.50;;
52866;SDS011;38739;53.324;6.862;2023-09-19T15:02:25;7.43;;;2.00;;
52866;SDS011;38739;53.324;6.862;2023-09-19T15:04:51;9.75;;;1.60;;
52866;SDS011;38739;53.324;6.862;2023-09-19T15:07:17;7.20;;;1.63;;
52866;SDS011;38739;53.324;6.862;2023-09-19T15:09:43;9.32;;;1.83;;
52866;SDS011;38739;53.324;6.862;2023-09-19T15:12:10;9.30;;;1.70;;
52866;SDS011;38739;53.324;6.862;2023-09-19T15:14:39;6.60;;;1.50;;
52866;SDS011;38739;53.324;6.862;2023-09-19T15:17:06;9.23;;;1.90;;
52866;SDS011;38739;53.324;6.862;2023-09-19T15:19:32;5.68;;;1.80;;
52866;SDS011;38739;53.324;6.862;2023-09-19T15:21:58;10.00;;;1.85;;
52866;SDS011;38739;53.324;6.862;2023-09-19T15:24:24;4.90;;;1.45;;
52866;SDS011;38739;53.324;6.862;2023-09-19T15:26:51;5.88;;;1.70;;
52866;SDS011;38739;53.324;6.862;2023-09-19T15:29:17;9.65;;;2.03;;
52866;SDS011;38739;53.324;6.862;2023-09-19T15:31:45;6.20;;;1.60;;
52866;SDS011;38739;53.324;6.862;2023-09-19T15:34:10;7.43;;;1.83;;
52866;SDS011;38739;53.324;6.862;2023-09-19T15:36:39;5.85;;;1.50;;
52866;SDS011;38739;53.324;6.862;2023-09-19T15:39:07;6.00;;;1.70;;
52866;SDS011;38739;53.324;6.862;2023-09-19T15:41:40;8.02;;;1.83;;
52866;SDS011;38739;53.324;6.862;2023-09-19T15:44:13;8.48;;;1.98;;
52866;SDS011;38739;53.324;6.862;2023-09-19T15:46:40;5.72;;;1.73;;
52866;SDS011;38739;53.324;6.862;2023-09-19T15:49:07;6.50;;;1.90;;
52866;SDS011;38739;53.324;6.862;2023-09-19T15:51:33;5.32;;;1.70;;
52866;SDS011;38739;53.324;6.862;2023-09-19T15:54:01;4.30;;;1.40;;
52866;SDS011;38739;53.324;6.862;2023-09-19T15:56:32;4.13;;;1.50;;
52866;SDS011;38739;53.324;6.862;2023-09-19T15:59:00;6.03;;;1.85;;
52866;SDS011;38739;53.324;6.862;2023-09-19T16:01:26;8.23;;;1.63;;
52866;SDS011;38739;53.324;6.862;2023-09-19T16:03:53;3.72;;;1.63;;
52866;SDS011;38739;53.324;6.862;2023-09-19T16:06:26;7.28;;;1.73;;
52866;SDS011;38739;53.324;6.862;2023-09-19T16:08:53;7.30;;;1.52;;
52866;SDS011;38739;53.324;6.862;2023-09-19T16:11:21;6.28;;;1.80;;